createdAt,value
2023-04-18T00:06:47.444Z,15.60
2023-04-18T00:21:49.602Z,15.25
2023-04-18T00:36:51.167Z,13.63
2023-04-18T00:51:52.780Z,13.82
2023-04-18T01:06:54.470Z,13.93
2023-04-18T01:21:56.389Z,13.63
2023-04-18T01:36:58.076Z,13.23
2023-04-18T01:51:59.670Z,12.68
2023-04-18T02:07:01.341Z,13.02
2023-04-18T02:22:02.901Z,14.45
2023-04-18T02:37:06.252Z,13.65
2023-04-18T02:52:07.896Z,13.48
2023-04-18T03:07:09.797Z,13.63
2023-04-18T03:22:13.796Z,14.68
2023-04-18T03:37:22.998Z,14.18
2023-04-18T03:52:29.808Z,13.35
2023-04-18T04:07:32.060Z,13.05
2023-04-18T04:22:34.694Z,13.15
2023-04-18T04:37:36.778Z,15.23
2023-04-18T04:52:49.964Z,14.45
2023-04-18T05:07:52.010Z,14.52
2023-04-18T05:22:53.605Z,14.82
2023-04-18T05:37:55.210Z,15.55
2023-04-18T05:52:59.430Z,14.18
2023-04-18T06:08:01.050Z,15.30
2023-04-18T06:23:02.632Z,16.90
2023-04-18T06:38:04.207Z,14.85
2023-04-18T06:53:06.249Z,17.38
2023-04-18T07:08:07.882Z,17.23
2023-04-18T07:23:10.630Z,16.20
2023-04-18T07:38:12.277Z,15.93
2023-04-18T07:53:14.463Z,14.57
2023-04-18T08:08:16.365Z,14.82
2023-04-18T08:23:17.954Z,13.98
2023-04-18T08:38:19.558Z,15.75
2023-04-18T08:53:21.287Z,14.65
2023-04-18T09:08:24.246Z,14.65
2023-04-18T09:23:26.246Z,11.48
2023-04-18T09:38:27.886Z,12.43
2023-04-18T09:53:29.503Z,10.52
2023-04-18T10:08:31.279Z,8.95
2023-04-18T10:23:35.006Z,8.77
2023-04-18T10:38:45.346Z,8.07
2023-04-18T10:53:47.155Z,9.07
2023-04-18T11:08:48.822Z,8.27
2023-04-18T11:23:50.479Z,5.72
2023-04-18T11:38:52.052Z,6.72
2023-04-18T11:53:53.621Z,4.43
2023-04-18T12:08:55.196Z,4.70
2023-04-18T12:23:57.587Z,3.80
2023-04-18T12:38:59.161Z,4.63
2023-04-18T12:54:00.792Z,4.72
2023-04-18T13:09:02.380Z,5.13
2023-04-18T13:24:04.325Z,4.78
2023-04-18T13:39:06.059Z,4.03
2023-04-18T13:54:07.836Z,4.22
2023-04-18T14:09:09.501Z,5.05
2023-04-18T14:24:11.417Z,5.45
2023-04-18T14:39:13.344Z,6.05
2023-04-18T14:54:15.148Z,6.32
2023-04-18T15:09:17.071Z,7.60
2023-04-18T15:24:18.700Z,7.07
2023-04-18T15:39:23.614Z,7.03
2023-04-18T15:54:25.284Z,7.78
2023-04-18T16:09:27.248Z,6.65
2023-04-18T16:24:30.354Z,6.95
2023-04-18T16:39:32.060Z,6.93
2023-04-18T16:54:33.673Z,7.47
2023-04-18T17:09:35.933Z,6.63
2023-04-18T17:24:38.116Z,7.75
2023-04-18T17:39:40.676Z,11.27
2023-04-18T17:54:42.420Z,8.07
2023-04-18T18:09:45.625Z,8.70
2023-04-18T18:24:47.347Z,8.57
2023-04-18T18:39:48.979Z,9.43
2023-04-18T18:54:50.648Z,9.70
2023-04-18T19:09:54.007Z,9.48
2023-04-18T19:24:55.771Z,8.88
2023-04-18T19:39:57.314Z,9.70
2023-04-18T19:54:58.912Z,9.60
2023-04-18T20:10:00.584Z,10.25
2023-04-18T20:25:02.225Z,11.05
2023-04-18T20:40:08.059Z,9.88
2023-04-18T20:55:09.738Z,11.18
2023-04-18T21:10:11.315Z,11.10
2023-04-18T21:25:12.912Z,11.73
2023-04-18T21:40:14.818Z,11.77
2023-04-18T21:55:16.396Z,12.88
2023-04-18T22:10:18.568Z,14.68
2023-04-18T22:25:20.196Z,13.98
2023-04-18T22:40:21.759Z,14.20
2023-04-18T22:55:23.363Z,13.85
2023-04-18T23:10:24.967Z,15.25
2023-04-18T23:25:26.689Z,14.93
2023-04-18T23:40:28.269Z,13.50
2023-04-18T23:55:30.294Z,13.98
